Flight Track Log - Related Links

Times and Time Zones

All times are in EDT time to prevent confusion due to time zone crossing. See the JZA8688 flight status page for this flight to view local times or setup timezone preferences in your user account.

Time Position Orientation Groundspeed Altitude Reporting Facility
EDT Latitude Longitude Course Direction KTS MPH feet Rate Location/Type
Mon 08:35:00 PM 45.7760 -73.4626 32° Northeast  Level Estimated
Mon 08:36:00 PM 45.8376 -73.4065 32° Northeast  Level Estimated
Mon 08:37:00 PM 45.8990 -73.3502 32° Northeast  Level Estimated
Mon 08:38:00 PM 45.9605 -73.2938 33° Northeast  Level Estimated
Mon 08:39:00 PM 46.0219 -73.2373 33° Northeast  Level Estimated
Mon 08:40:00 PM 46.0833 -73.1807 33° Northeast  Level Estimated
Mon 08:41:00 PM 46.1447 -73.1239 33° Northeast  Level Estimated
Mon 08:42:00 PM 46.2061 -73.0670 33° Northeast  Level Estimated
Mon 08:43:00 PM 46.2674 -73.0100 33° Northeast  Level Estimated
Mon 08:44:00 PM 46.3287 -72.9529 33° Northeast  Level Estimated
Mon 08:45:00 PM 46.3899 -72.8956 33° Northeast  Level Estimated
Mon 08:46:00 PM 46.4512 -72.8382 33° Northeast  Level Estimated
Mon 08:47:00 PM 46.5124 -72.7807 33° Northeast  Level Estimated
Mon 08:48:00 PM 46.5735 -72.7231 33° Northeast  Level Estimated
Mon 08:49:00 PM 46.6347 -72.6653 33° Northeast  Level Estimated
Mon 08:50:00 PM 46.6958 -72.6074 33° Northeast  Level Estimated
Mon 08:51:00 PM 46.7569 -72.5493 33° Northeast  Level Estimated
Mon 08:52:00 PM 46.8180 -72.4911 33° Northeast  Level Estimated
Mon 08:53:00 PM 46.8790 -72.4328 33° Northeast  Level Estimated
Mon 08:54:00 PM 46.9400 -72.3744 33° Northeast  Level Estimated
Mon 08:55:00 PM 47.0009 -72.3158 33° Northeast  Level Estimated
Mon 08:56:00 PM 47.0619 -72.2571 33° Northeast  Level Estimated
Mon 08:57:00 PM 47.1228 -72.1983 33° Northeast  Level Estimated
Mon 08:58:00 PM 47.1837 -72.1393 33° Northeast  Level Estimated
Mon 08:59:00 PM 47.2445 -72.0802 33° Northeast  Level Estimated
Mon 09:00:00 PM 47.3054 -72.0209 33° Northeast  Level Estimated
Mon 09:01:00 PM 47.3661 -71.9615 33° Northeast  Level Estimated
Mon 09:02:00 PM 47.4269 -71.9020 34° Northeast  Level Estimated
Mon 09:03:00 PM 47.4876 -71.8424 34° Northeast  Level Estimated
Mon 09:04:00 PM 47.5483 -71.7826 34° Northeast  Level Estimated
Mon 09:05:00 PM 47.6090 -71.7226 34° Northeast  Level Estimated
Mon 09:06:00 PM 47.6696 -71.6626 34° Northeast  Level Estimated
Mon 09:07:00 PM 47.7302 -71.6023 34° Northeast  Level Estimated
Mon 09:08:00 PM 47.7908 -71.5420 34° Northeast  Level Estimated
Mon 09:09:00 PM 47.8513 -71.4815 34° Northeast  Level Estimated
Mon 09:10:00 PM 47.9118 -71.4209 34° Northeast  Level Estimated
Mon 09:11:00 PM 47.9723 -71.3601 34° Northeast  Level Estimated
Mon 09:12:00 PM 48.0327 -71.2991 34° Northeast  Level Estimated
Mon 09:13:00 PM 48.0932 -71.2381 34° Northeast  Level Estimated
Mon 09:14:00 PM 48.1576 -71.1727 34° Northeast  Level Estimated
Mon 09:15:00 PM 48.2221 -71.1071 34° Northeast  Level Estimated
Mon 09:16:00 PM 48.2865 -71.0414 34° Northeast  Level Estimated
Mon 09:17:00 PM 48.3306 -70.9964 34° Northeast  Level Estimated
Mon 09:18:00 PM 48.3306 -70.9964 North  Level Estimated
Mon 09:19:00 PM 48.3306 -70.9964 North  Level Estimated
Mon 09:20:00 PM 48.3306 -70.9964 North  Level Estimated
Mon 09:21:00 PM 48.3306 -70.9964 North  Level Estimated
Mon 09:22:00 PM 48.3306 -70.9964 North  Level Estimated
Mon 09:23:00 PM 48.3306 -70.9964 North  Level Estimated
Mon 09:24:00 PM 48.3306 -70.9964 North  Level Estimated
Mon 09:25:00 PM 48.3306 -70.9964 North  Level Estimated
Mon 09:26:00 PM 48.3306 -70.9964 North  Level Estimated
Mon 09:27:00 PM 48.3306 -70.9964 North  Level Estimated

Login

Don't have an account? Register now (free) for customized features, flight alerts, and more!